createdAt,value
2019-04-25T00:02:29.249Z,0.40
2019-04-25T00:04:58.961Z,0.80
2019-04-25T00:07:28.538Z,0.87
2019-04-25T00:09:58.684Z,0.73
2019-04-25T00:12:28.283Z,0.70
2019-04-25T00:14:57.863Z,0.70
2019-04-25T00:17:27.277Z,0.70
2019-04-25T00:19:56.927Z,0.80
2019-04-25T00:22:42.906Z,0.70
2019-04-25T00:25:45.127Z,0.73
2019-04-25T00:28:12.208Z,0.90
2019-04-25T00:30:43.308Z,0.73
2019-04-25T00:33:12.805Z,0.60
2019-04-25T00:35:43.483Z,0.80
2019-04-25T00:38:12.920Z,0.83
2019-04-25T00:40:43.538Z,0.90
2019-04-25T00:43:13.301Z,0.70
2019-04-25T00:45:44.329Z,0.70
2019-04-25T00:48:13.637Z,0.70
2019-04-25T00:50:44.367Z,0.70
2019-04-25T00:53:13.994Z,0.80
2019-04-25T00:55:44.277Z,0.80
2019-04-25T00:58:34.893Z,0.60
2019-04-25T01:01:21.924Z,0.70
2019-04-25T01:03:53.310Z,0.70
2019-04-25T01:06:22.556Z,0.70
2019-04-25T01:08:54.555Z,0.63
2019-04-25T01:11:22.666Z,0.60
2019-04-25T01:13:52.542Z,0.70
2019-04-25T01:16:22.833Z,0.60
2019-04-25T01:18:54.360Z,0.80
2019-04-25T01:21:23.727Z,0.80
2019-04-25T01:23:55.711Z,0.70
2019-04-25T01:26:25.347Z,0.87
2019-04-25T01:28:54.993Z,0.73
2019-04-25T01:31:26.227Z,0.80
2019-04-25T01:33:56.589Z,0.77
2019-04-25T01:36:39.342Z,0.70
2019-04-25T01:39:16.221Z,0.87
2019-04-25T01:41:58.182Z,0.67
2019-04-25T01:44:31.451Z,0.60
2019-04-25T01:47:01.022Z,0.60
2019-04-25T01:49:31.054Z,1.00
2019-04-25T01:52:00.634Z,0.83
2019-04-25T01:54:29.894Z,0.80
2019-04-25T01:56:59.378Z,0.80
2019-04-25T01:59:28.950Z,0.70
2019-04-25T02:01:58.864Z,0.90
2019-04-25T02:04:28.379Z,0.80
2019-04-25T02:06:58.018Z,1.00
2019-04-25T02:09:27.726Z,1.00
2019-04-25T02:12:15.470Z,1.07
2019-04-25T02:14:44.887Z,1.10
2019-04-25T02:17:14.933Z,0.90
2019-04-25T02:19:44.438Z,1.07
2019-04-25T02:22:14.566Z,1.00
2019-04-25T02:24:44.047Z,1.13
2019-04-25T02:27:13.613Z,0.97
2019-04-25T02:29:44.680Z,0.93
2019-04-25T02:32:14.843Z,1.00
2019-04-25T02:34:45.516Z,1.00
2019-04-25T02:37:17.348Z,0.90
2019-04-25T02:39:47.581Z,0.90
2019-04-25T02:42:17.105Z,0.80
2019-04-25T02:45:00.206Z,0.80
2019-04-25T02:47:47.692Z,0.90
2019-04-25T02:50:48.014Z,1.07
2019-04-25T02:53:44.707Z,1.00
2019-04-25T02:56:27.462Z,1.00
2019-04-25T02:58:44.366Z,1.10
2019-04-25T03:01:21.589Z,0.77
2019-04-25T03:03:47.190Z,1.10
2019-04-25T03:06:16.498Z,1.27
2019-04-25T03:08:45.707Z,1.03
2019-04-25T03:11:15.340Z,1.23
2019-04-25T03:13:44.786Z,1.17
2019-04-25T03:16:14.261Z,1.20
2019-04-25T03:19:00.538Z,1.20
2019-04-25T03:21:34.983Z,1.10
2019-04-25T03:24:09.092Z,1.00
2019-04-25T03:26:40.285Z,1.63
2019-04-25T03:29:06.123Z,1.10
2019-04-25T03:31:35.495Z,0.83
2019-04-25T03:34:09.730Z,1.20
2019-04-25T03:36:35.728Z,1.10
2019-04-25T03:39:06.703Z,1.30
2019-04-25T03:41:36.351Z,1.43
2019-04-25T03:44:06.484Z,1.60
2019-04-25T03:46:36.132Z,1.20
2019-04-25T03:49:07.634Z,1.17
2019-04-25T03:51:37.130Z,1.20
2019-04-25T03:54:07.491Z,1.53
2019-04-25T03:56:37.484Z,1.83
2019-04-25T03:59:07.244Z,1.67
2019-04-25T04:01:36.537Z,1.60
2019-04-25T04:04:06.732Z,1.37
2019-04-25T04:06:36.722Z,1.60
2019-04-25T04:09:07.871Z,1.60
2019-04-25T04:11:37.969Z,1.30
2019-04-25T04:14:08.239Z,1.40
2019-04-25T04:16:40.078Z,1.70
2019-04-25T04:19:09.563Z,1.60
2019-04-25T04:22:03.788Z,1.60
2019-04-25T04:24:54.690Z,1.80
2019-04-25T04:27:24.283Z,1.97
2019-04-25T04:29:54.275Z,1.50
2019-04-25T04:32:24.207Z,1.30
2019-04-25T04:34:53.815Z,1.70
2019-04-25T04:37:23.687Z,1.70
2019-04-25T04:39:53.624Z,1.63
2019-04-25T04:42:23.755Z,1.47
2019-04-25T04:44:53.452Z,1.57
2019-04-25T04:47:23.621Z,1.30
2019-04-25T04:49:53.989Z,1.40
2019-04-25T04:52:25.503Z,1.40
2019-04-25T04:55:05.294Z,1.90
2019-04-25T04:57:32.517Z,1.63
2019-04-25T04:59:56.851Z,1.30
2019-04-25T05:02:57.242Z,1.20
2019-04-25T05:05:51.521Z,1.10
2019-04-25T05:08:26.985Z,0.90
2019-04-25T05:10:57.422Z,0.73
2019-04-25T05:13:26.906Z,0.90
2019-04-25T05:15:56.319Z,1.00
2019-04-25T05:18:36.997Z,0.93
2019-04-25T05:20:56.949Z,1.00
2019-04-25T05:23:26.351Z,0.80
2019-04-25T05:25:55.857Z,0.77
2019-04-25T05:28:25.328Z,1.00
2019-04-25T05:31:08.113Z,0.80
2019-04-25T05:33:38.264Z,1.00
2019-04-25T05:36:07.906Z,0.87
2019-04-25T05:38:37.307Z,1.10
2019-04-25T05:41:14.786Z,0.80
2019-04-25T05:43:44.184Z,0.80
2019-04-25T05:46:15.363Z,0.67
2019-04-25T05:48:44.635Z,0.63
2019-04-25T05:51:14.035Z,0.80
2019-04-25T05:53:43.409Z,0.80
2019-04-25T05:56:13.898Z,0.87
2019-04-25T05:58:43.942Z,0.73
2019-04-25T06:01:13.473Z,0.80
2019-04-25T06:03:43.927Z,0.80
2019-04-25T06:06:13.838Z,0.77
2019-04-25T06:08:49.803Z,0.87
2019-04-25T06:11:26.173Z,0.97
2019-04-25T06:14:07.492Z,0.93
2019-04-25T06:16:38.075Z,0.90
2019-04-25T06:19:26.394Z,0.70
2019-04-25T06:21:56.184Z,0.70
2019-04-25T06:24:44.421Z,0.90
2019-04-25T06:27:33.663Z,0.70
2019-04-25T06:30:26.204Z,0.83
2019-04-25T06:32:56.295Z,0.80
2019-04-25T06:35:26.615Z,0.70
2019-04-25T06:37:56.583Z,0.90
2019-04-25T06:40:26.319Z,0.60
2019-04-25T06:42:56.652Z,0.97
2019-04-25T06:45:50.232Z,0.70
2019-04-25T06:48:26.012Z,0.80
2019-04-25T06:50:56.213Z,0.80
2019-04-25T06:53:26.056Z,0.60
2019-04-25T06:55:56.332Z,0.80
2019-04-25T06:58:26.881Z,0.63
2019-04-25T07:01:00.657Z,0.90
2019-04-25T07:03:27.147Z,0.70
2019-04-25T07:05:56.304Z,0.90
2019-04-25T07:08:27.793Z,0.63
2019-04-25T07:10:57.810Z,1.03
2019-04-25T07:13:28.358Z,0.80
2019-04-25T07:15:57.924Z,0.80
2019-04-25T07:18:31.237Z,1.10
2019-04-25T07:20:58.079Z,0.90
2019-04-25T07:23:27.585Z,0.67
2019-04-25T07:28:56.056Z,0.90
2019-04-25T07:31:50.198Z,0.80
2019-04-25T07:34:21.714Z,0.83
2019-04-25T07:36:51.272Z,0.87
2019-04-25T07:39:20.550Z,0.80
2019-04-25T07:41:50.042Z,0.90
2019-04-25T07:44:22.022Z,0.93
2019-04-25T07:46:50.516Z,0.80
2019-04-25T07:49:20.292Z,0.90
2019-04-25T07:51:49.940Z,0.70
2019-04-25T07:54:19.438Z,0.70
2019-04-25T07:56:48.646Z,0.90
2019-04-25T07:59:17.728Z,0.80
2019-04-25T08:01:47.151Z,0.60
2019-04-25T08:04:16.310Z,0.70
2019-04-25T08:06:45.565Z,0.80
2019-04-25T08:09:15.727Z,0.73
2019-04-25T08:11:45.627Z,0.70
2019-04-25T08:14:20.480Z,0.70
2019-04-25T08:16:53.665Z,0.77
2019-04-25T08:19:24.738Z,0.73
2019-04-25T08:21:55.449Z,0.90
2019-04-25T08:24:25.004Z,0.80
2019-04-25T08:26:54.588Z,1.03
2019-04-25T08:29:25.424Z,0.97
2019-04-25T08:31:55.590Z,0.93
2019-04-25T08:34:25.036Z,1.00
2019-04-25T08:36:54.744Z,1.13
2019-04-25T08:39:24.175Z,0.90
2019-04-25T08:41:54.155Z,0.83
2019-04-25T08:44:24.097Z,0.60
2019-04-25T08:46:54.398Z,1.43
2019-04-25T08:49:28.612Z,1.00
2019-04-25T08:51:58.501Z,1.17
2019-04-25T08:54:49.832Z,0.80
2019-04-25T08:57:38.286Z,0.80
2019-04-25T09:00:15.356Z,0.80
2019-04-25T09:02:51.410Z,0.80
2019-04-25T09:05:24.178Z,0.80
2019-04-25T09:07:54.350Z,1.03
2019-04-25T09:10:23.833Z,0.67
2019-04-25T09:12:53.729Z,0.80
2019-04-25T09:15:24.146Z,0.90
2019-04-25T09:17:54.752Z,1.00
2019-04-25T09:20:24.392Z,0.80
2019-04-25T09:22:54.274Z,0.87
2019-04-25T09:25:23.960Z,0.80
2019-04-25T09:27:54.383Z,0.80
2019-04-25T09:30:24.169Z,0.80
2019-04-25T09:32:53.944Z,0.93
2019-04-25T09:35:23.629Z,0.80
2019-04-25T09:37:53.573Z,1.00
2019-04-25T09:40:24.960Z,0.87
2019-04-25T09:42:54.616Z,0.73
2019-04-25T09:45:39.616Z,1.07
2019-04-25T09:48:16.118Z,0.73
2019-04-25T09:50:47.775Z,0.90
2019-04-25T09:53:23.513Z,0.97
2019-04-25T09:55:57.242Z,1.07
2019-04-25T09:58:54.836Z,0.80
2019-04-25T10:01:25.120Z,0.93
2019-04-25T10:03:54.608Z,1.20
2019-04-25T10:06:24.127Z,0.80
2019-04-25T10:08:54.311Z,1.07
2019-04-25T10:11:23.909Z,0.63
2019-04-25T10:14:10.909Z,0.80
2019-04-25T10:16:40.248Z,0.60
2019-04-25T10:19:09.410Z,0.90
2019-04-25T10:21:39.538Z,0.67
2019-04-25T10:24:09.299Z,0.90
2019-04-25T10:26:39.638Z,0.70
2019-04-25T10:29:09.677Z,0.80
2019-04-25T10:31:38.866Z,1.07
2019-04-25T10:34:08.063Z,0.80
2019-04-25T10:36:39.798Z,1.07
2019-04-25T10:39:11.108Z,0.83
2019-04-25T10:41:40.908Z,0.73
2019-04-25T10:44:10.836Z,1.00
2019-04-25T10:46:41.655Z,1.00
2019-04-25T10:49:11.221Z,1.20
2019-04-25T10:51:40.846Z,1.13
2019-04-25T10:54:10.549Z,0.93
2019-04-25T10:56:40.147Z,0.90
2019-04-25T10:59:09.455Z,1.37
2019-04-25T11:01:39.191Z,0.83
2019-04-25T11:04:17.730Z,0.80
2019-04-25T11:06:47.157Z,1.00
2019-04-25T11:09:20.592Z,1.00
2019-04-25T11:11:50.438Z,0.83
2019-04-25T11:14:19.996Z,0.90
2019-04-25T11:16:50.376Z,0.60
2019-04-25T11:19:20.555Z,1.17
2019-04-25T11:21:50.059Z,0.67
2019-04-25T11:24:19.483Z,0.70
2019-04-25T11:26:50.467Z,0.80
2019-04-25T11:29:19.695Z,0.70
2019-04-25T11:31:49.010Z,0.73
2019-04-25T11:34:18.492Z,1.00
2019-04-25T11:36:48.474Z,0.87
2019-04-25T11:39:44.376Z,0.83
2019-04-25T11:42:15.424Z,0.70
2019-04-25T11:44:46.107Z,0.70
2019-04-25T11:47:15.587Z,0.73
2019-04-25T11:49:46.505Z,0.70
2019-04-25T11:52:26.877Z,0.80
2019-04-25T11:54:48.079Z,0.80
2019-04-25T11:57:17.794Z,0.80
2019-04-25T11:59:49.170Z,0.90
2019-04-25T12:02:19.190Z,0.80
2019-04-25T12:04:49.020Z,0.87
2019-04-25T12:07:18.933Z,0.60
2019-04-25T12:09:48.390Z,1.13
2019-04-25T12:12:17.655Z,0.70
2019-04-25T12:14:47.594Z,0.60
2019-04-25T12:17:17.145Z,0.70
2019-04-25T12:19:47.036Z,0.40
2019-04-25T12:22:16.401Z,0.90
2019-04-25T12:24:46.636Z,0.90
2019-04-25T12:27:16.349Z,0.60
2019-04-25T12:29:46.028Z,0.63
2019-04-25T12:32:15.565Z,1.00
2019-04-25T12:34:47.524Z,0.70
2019-04-25T12:37:17.049Z,1.07
2019-04-25T12:39:47.092Z,0.70
2019-04-25T12:42:16.344Z,0.50
2019-04-25T12:44:58.128Z,0.90
2019-04-25T12:47:28.727Z,0.60
2019-04-25T12:49:58.024Z,0.60
2019-04-25T12:52:27.274Z,1.07
2019-04-25T12:54:58.116Z,0.53
2019-04-25T12:57:28.051Z,0.70
2019-04-25T12:59:57.575Z,0.80
2019-04-25T13:02:27.475Z,0.73
2019-04-25T13:04:57.151Z,0.83
2019-04-25T13:07:26.444Z,0.70
2019-04-25T13:09:55.671Z,0.60
2019-04-25T13:12:25.316Z,0.70
2019-04-25T13:14:54.764Z,0.73
2019-04-25T13:17:24.215Z,0.60
2019-04-25T13:19:54.405Z,0.80
2019-04-25T13:22:24.265Z,0.60
2019-04-25T13:24:53.594Z,0.80
2019-04-25T13:27:33.610Z,0.50
2019-04-25T13:30:17.756Z,0.60
2019-04-25T13:33:13.061Z,0.60
2019-04-25T13:35:49.412Z,0.70
2019-04-25T13:38:18.893Z,0.70
2019-04-25T13:40:48.976Z,0.60
2019-04-25T13:43:18.413Z,0.50
2019-04-25T13:45:47.988Z,0.50
2019-04-25T13:48:17.312Z,0.40
2019-04-25T13:50:46.997Z,0.80
2019-04-25T13:53:16.311Z,0.73
2019-04-25T13:55:45.718Z,0.73
2019-04-25T13:58:15.701Z,0.60
2019-04-25T14:00:45.461Z,0.47
2019-04-25T14:03:14.716Z,0.70
2019-04-25T14:05:44.017Z,0.60
2019-04-25T14:08:14.895Z,0.70
2019-04-25T14:10:47.286Z,0.63
2019-04-25T14:13:15.561Z,0.77
2019-04-25T14:15:55.522Z,0.60
2019-04-25T14:18:34.495Z,0.70
2019-04-25T14:21:13.248Z,0.90
2019-04-25T14:23:44.164Z,0.90
2019-04-25T14:26:14.066Z,0.83
2019-04-25T14:28:44.267Z,0.70
2019-04-25T14:31:30.536Z,0.70
2019-04-25T14:33:46.972Z,0.80
2019-04-25T14:36:16.812Z,0.90
2019-04-25T14:38:46.109Z,0.70
2019-04-25T14:41:15.480Z,0.80
2019-04-25T14:43:46.435Z,0.83
2019-04-25T14:46:16.071Z,0.90
2019-04-25T14:48:45.529Z,0.70
2019-04-25T14:51:15.037Z,0.90
2019-04-25T14:53:45.017Z,0.70
2019-04-25T14:56:32.430Z,0.70
2019-04-25T14:59:01.689Z,0.60
2019-04-25T15:01:43.168Z,0.87
2019-04-25T15:04:02.483Z,0.90
2019-04-25T15:06:32.070Z,0.70
2019-04-25T15:09:01.535Z,0.70
2019-04-25T15:11:31.504Z,0.80
2019-04-25T15:14:00.951Z,0.73
2019-04-25T15:16:31.174Z,0.70
2019-04-25T15:19:00.361Z,1.00
2019-04-25T15:21:29.814Z,0.93
2019-04-25T15:24:00.317Z,0.50
2019-04-25T15:26:31.083Z,0.60
2019-04-25T15:29:00.358Z,0.77
2019-04-25T15:31:30.233Z,0.97
2019-04-25T15:34:02.190Z,0.60
2019-04-25T15:36:54.391Z,1.50
2019-04-25T15:39:40.700Z,1.10
2019-04-25T15:42:34.059Z,1.00
2019-04-25T15:45:34.936Z,0.77
2019-04-25T15:48:06.197Z,0.93
2019-04-25T15:50:35.365Z,1.00
2019-04-25T15:53:04.772Z,0.90
2019-04-25T15:55:34.784Z,0.57
2019-04-25T15:58:04.436Z,0.67
2019-04-25T16:00:36.746Z,0.77
2019-04-25T16:03:06.798Z,0.60
2019-04-25T16:05:36.565Z,0.70
2019-04-25T16:08:06.135Z,0.87
2019-04-25T16:10:36.458Z,1.00
2019-04-25T16:13:06.120Z,0.70
2019-04-25T16:15:36.114Z,1.70
2019-04-25T16:18:05.858Z,0.70
2019-04-25T16:20:35.760Z,0.73
2019-04-25T16:23:05.913Z,0.70
2019-04-25T16:25:35.511Z,0.60
2019-04-25T16:28:04.691Z,0.80
2019-04-25T16:30:34.547Z,0.50
2019-04-25T16:33:04.763Z,0.77
2019-04-25T16:35:37.848Z,0.63
2019-04-25T16:38:07.617Z,0.87
2019-04-25T16:40:36.930Z,1.00
2019-04-25T16:43:08.617Z,0.70
2019-04-25T16:45:39.429Z,0.50
2019-04-25T16:48:08.930Z,0.60
2019-04-25T16:50:38.228Z,0.60
2019-04-25T16:53:07.615Z,0.53
2019-04-25T16:55:37.055Z,0.90
2019-04-25T16:58:07.260Z,0.60
2019-04-25T17:00:54.561Z,0.73
2019-04-25T17:03:26.622Z,0.50
2019-04-25T17:05:55.914Z,0.80
2019-04-25T17:08:25.538Z,0.67
2019-04-25T17:10:54.858Z,0.60
2019-04-25T17:13:25.471Z,0.60
2019-04-25T17:16:24.497Z,0.60
2019-04-25T17:18:57.083Z,0.73
2019-04-25T17:21:26.424Z,0.83
2019-04-25T17:23:56.175Z,0.57
2019-04-25T17:26:25.531Z,0.57
2019-04-25T17:28:56.573Z,0.80
2019-04-25T17:31:35.342Z,0.73
2019-04-25T17:34:29.557Z,0.90
2019-04-25T17:37:13.247Z,0.70
2019-04-25T17:39:43.762Z,0.70
2019-04-25T17:42:13.399Z,0.80
2019-04-25T17:44:42.794Z,0.70
2019-04-25T17:47:12.272Z,0.67
2019-04-25T17:49:42.368Z,0.70
2019-04-25T17:52:11.592Z,0.50
2019-04-25T17:54:41.314Z,0.80
2019-04-25T17:57:10.597Z,0.60
2019-04-25T17:59:39.993Z,0.80
2019-04-25T18:02:09.449Z,0.60
2019-04-25T18:04:38.781Z,0.60
2019-04-25T18:07:08.622Z,0.90
2019-04-25T18:09:38.678Z,0.47
2019-04-25T18:12:08.066Z,0.60
2019-04-25T18:14:38.444Z,0.60
2019-04-25T18:17:10.218Z,0.50
2019-04-25T18:19:44.764Z,0.70
2019-04-25T18:22:39.464Z,1.07
2019-04-25T18:25:25.143Z,0.60
2019-04-25T18:27:59.118Z,0.53
2019-04-25T18:30:28.473Z,0.70
2019-04-25T18:33:17.098Z,0.70
2019-04-25T18:35:46.957Z,0.73
2019-04-25T18:38:32.023Z,0.73
2019-04-25T18:41:15.793Z,0.90
2019-04-25T18:43:51.892Z,0.63
2019-04-25T18:46:26.261Z,0.60
2019-04-25T18:48:59.545Z,0.77
2019-04-25T18:51:29.379Z,0.80
2019-04-25T18:54:20.823Z,0.50
2019-04-25T18:56:56.292Z,0.90
2019-04-25T18:59:39.501Z,0.70
2019-04-25T19:02:40.003Z,0.70
2019-04-25T19:05:28.440Z,0.60
2019-04-25T19:07:58.047Z,0.77
2019-04-25T19:10:27.972Z,0.83
2019-04-25T19:12:57.419Z,0.77
2019-04-25T19:15:27.368Z,0.77
2019-04-25T19:17:56.776Z,0.70
2019-04-25T19:20:26.083Z,0.70
2019-04-25T19:22:55.647Z,0.70
2019-04-25T19:25:25.083Z,0.90
2019-04-25T19:27:54.869Z,0.83
2019-04-25T19:30:24.478Z,0.50
2019-04-25T19:32:53.850Z,0.50
2019-04-25T19:35:26.272Z,0.70
2019-04-25T19:37:57.021Z,0.70
2019-04-25T19:40:38.539Z,0.60
2019-04-25T19:43:27.036Z,0.80
2019-04-25T19:45:56.637Z,0.83
2019-04-25T19:48:26.385Z,0.70
2019-04-25T19:50:56.095Z,0.80
2019-04-25T19:53:25.576Z,0.90
2019-04-25T19:55:55.489Z,0.60
2019-04-25T19:58:25.228Z,0.73
2019-04-25T20:00:55.201Z,0.70
2019-04-25T20:03:31.334Z,0.93
2019-04-25T20:06:06.317Z,0.70
2019-04-25T20:08:44.873Z,0.93
2019-04-25T20:11:21.396Z,0.70
2019-04-25T20:13:51.278Z,0.70
2019-04-25T20:16:20.698Z,0.77
2019-04-25T20:18:50.475Z,1.10
2019-04-25T20:21:20.319Z,0.90
2019-04-25T20:23:50.014Z,0.70
2019-04-25T20:26:19.875Z,0.70
2019-04-25T20:28:49.663Z,1.00
2019-04-25T20:31:18.845Z,0.80
2019-04-25T20:34:00.269Z,0.90
2019-04-25T20:36:19.215Z,0.90
2019-04-25T20:38:49.105Z,0.87
2019-04-25T20:41:18.689Z,0.70
2019-04-25T20:43:48.829Z,0.77
2019-04-25T20:46:18.402Z,0.53
2019-04-25T20:48:48.186Z,0.77
2019-04-25T20:51:17.668Z,0.70
2019-04-25T20:53:47.962Z,0.60
2019-04-25T20:56:18.103Z,0.70
2019-04-25T20:58:47.854Z,0.93
2019-04-25T21:01:36.236Z,0.87
2019-04-25T21:04:12.981Z,0.60
2019-04-25T21:06:39.776Z,0.67
2019-04-25T21:09:09.401Z,1.20
2019-04-25T21:11:38.757Z,0.77
2019-04-25T21:14:29.829Z,0.70
2019-04-25T21:17:11.256Z,0.90
2019-04-25T21:19:43.112Z,1.20
2019-04-25T21:22:12.730Z,1.10
2019-04-25T21:24:42.230Z,0.90
2019-04-25T21:27:11.415Z,0.73
2019-04-25T21:29:40.955Z,1.13
2019-04-25T21:32:10.223Z,1.40
2019-04-25T21:34:39.428Z,0.90
2019-04-25T21:37:09.298Z,1.27
2019-04-25T21:39:49.345Z,1.33
2019-04-25T21:42:29.534Z,1.23
2019-04-25T21:45:00.459Z,1.27
2019-04-25T21:47:29.985Z,1.27
2019-04-25T21:49:59.585Z,1.30
2019-04-25T21:52:30.069Z,1.33
2019-04-25T21:54:59.771Z,1.20
2019-04-25T21:57:29.803Z,1.37
2019-04-25T22:00:06.031Z,1.07
2019-04-25T22:02:31.157Z,0.90
2019-04-25T22:05:00.768Z,0.90
2019-04-25T22:07:30.428Z,1.30
2019-04-25T22:10:00.029Z,1.00
2019-04-25T22:12:29.433Z,0.90
2019-04-25T22:14:59.285Z,1.00
2019-04-25T22:17:30.383Z,0.90
2019-04-25T22:20:00.264Z,1.30
2019-04-25T22:22:30.332Z,0.70
2019-04-25T22:25:00.493Z,1.17
2019-04-25T22:27:36.445Z,1.13
2019-04-25T22:30:06.750Z,1.10
2019-04-25T22:33:05.650Z,1.43
2019-04-25T22:35:48.875Z,1.33
2019-04-25T22:38:19.006Z,0.93
2019-04-25T22:40:48.336Z,1.30
2019-04-25T22:43:18.108Z,1.10
2019-04-25T22:45:47.962Z,1.33
2019-04-25T22:48:19.043Z,1.50
2019-04-25T22:50:48.828Z,1.43
2019-04-25T22:53:23.193Z,1.30
2019-04-25T22:55:49.877Z,1.33
2019-04-25T22:58:19.163Z,1.37
2019-04-25T23:00:48.463Z,1.17
2019-04-25T23:03:34.349Z,1.10
2019-04-25T23:06:04.289Z,1.60
2019-04-25T23:08:34.925Z,1.23
2019-04-25T23:11:04.420Z,1.20
2019-04-25T23:13:33.704Z,1.10
2019-04-25T23:16:04.134Z,1.40
2019-04-25T23:18:34.511Z,0.90
2019-04-25T23:21:05.716Z,1.50
2019-04-25T23:23:35.507Z,1.37
2019-04-25T23:26:11.817Z,0.90
2019-04-25T23:28:42.587Z,1.03
2019-04-25T23:31:18.880Z,1.40
2019-04-25T23:33:48.057Z,1.37
2019-04-25T23:36:17.784Z,1.20
2019-04-25T23:38:47.583Z,1.13
2019-04-25T23:41:17.262Z,1.10
2019-04-25T23:43:46.720Z,1.20
2019-04-25T23:46:16.343Z,0.93
2019-04-25T23:48:47.638Z,1.07
2019-04-25T23:51:17.458Z,1.00
2019-04-25T23:53:47.070Z,1.20
2019-04-25T23:56:17.273Z,1.20
2019-04-25T23:58:46.893Z,1.00
